createdAt,value
2018-09-07T00:02:14.576Z,15.53
2018-09-07T00:04:42.785Z,16.30
2018-09-07T00:07:10.855Z,15.80
2018-09-07T00:09:39.062Z,15.50
2018-09-07T00:12:11.326Z,11.90
2018-09-07T00:14:40.959Z,14.23
2018-09-07T00:17:09.479Z,15.40
2018-09-07T00:19:38.188Z,17.10
2018-09-07T00:22:06.884Z,15.53
2018-09-07T00:24:35.480Z,17.53
2018-09-07T00:27:03.897Z,17.13
2018-09-07T00:29:32.224Z,16.07
2018-09-07T00:32:00.607Z,15.20
2018-09-07T00:34:28.725Z,16.70
2018-09-07T00:36:57.307Z,16.83
2018-09-07T00:39:25.585Z,14.00
2018-09-07T00:41:54.112Z,14.70
2018-09-07T00:44:22.288Z,13.67
2018-09-07T00:46:50.496Z,14.33
2018-09-07T00:49:18.816Z,14.40
2018-09-07T00:51:47.072Z,13.90
2018-09-07T00:54:15.303Z,13.37
2018-09-07T00:56:43.600Z,13.57
2018-09-07T00:59:11.812Z,12.93
2018-09-07T01:01:40.354Z,13.47
2018-09-07T01:04:08.674Z,13.53
2018-09-07T01:06:37.077Z,12.93
2018-09-07T01:09:06.179Z,13.73
2018-09-07T01:11:34.358Z,14.70
2018-09-07T01:14:02.843Z,14.97
2018-09-07T01:16:31.437Z,13.20
2018-09-07T01:18:59.842Z,14.33
2018-09-07T01:21:28.540Z,14.53
2018-09-07T01:23:56.742Z,14.07
2018-09-07T01:26:25.139Z,15.70
2018-09-07T01:28:53.382Z,13.73
2018-09-07T01:31:21.439Z,14.60
2018-09-07T01:33:49.594Z,15.57
2018-09-07T01:36:17.948Z,15.57
2018-09-07T01:38:46.272Z,18.03
2018-09-07T01:41:14.345Z,16.77
2018-09-07T01:43:42.569Z,16.17
2018-09-07T01:46:10.658Z,15.23
2018-09-07T01:48:38.808Z,14.83
2018-09-07T01:51:07.127Z,16.10
2018-09-07T01:53:35.217Z,15.77
2018-09-07T01:56:03.591Z,16.77
2018-09-07T01:58:31.761Z,17.17
2018-09-07T02:01:01.849Z,16.17
2018-09-07T02:03:32.703Z,14.20
2018-09-07T02:06:06.051Z,14.57
2018-09-07T02:08:38.973Z,13.00
2018-09-07T02:11:07.983Z,13.67
2018-09-07T02:13:38.340Z,12.03
2018-09-07T02:16:09.580Z,14.47
2018-09-07T02:18:43.474Z,14.57
2018-09-07T02:21:15.811Z,14.00
2018-09-07T02:23:46.399Z,14.87
2018-09-07T02:26:17.196Z,15.83
2018-09-07T02:28:46.538Z,13.10
2018-09-07T02:31:20.303Z,13.40
2018-09-07T02:33:49.090Z,12.97
2018-09-07T02:36:17.138Z,15.30
2018-09-07T02:38:50.917Z,14.30
2018-09-07T02:41:19.654Z,12.87
2018-09-07T02:43:49.498Z,14.30
2018-09-07T02:46:21.344Z,15.00
2018-09-07T02:48:57.308Z,13.30
2018-09-07T02:51:26.452Z,16.80
2018-09-07T02:53:57.877Z,17.20
2018-09-07T02:56:30.482Z,15.63
2018-09-07T02:59:00.135Z,16.90
2018-09-07T03:01:33.215Z,17.87
2018-09-07T03:04:05.326Z,16.77
2018-09-07T03:06:33.667Z,16.80
2018-09-07T03:09:06.320Z,15.50
2018-09-07T03:11:36.323Z,13.50
2018-09-07T03:14:07.770Z,13.03
2018-09-07T03:16:37.692Z,14.47
2018-09-07T03:19:06.843Z,15.70
2018-09-07T03:21:36.009Z,13.73
2018-09-07T03:24:06.524Z,14.70
2018-09-07T03:26:34.803Z,14.10
2018-09-07T03:29:07.822Z,16.10
2018-09-07T03:31:35.732Z,15.10
2018-09-07T03:34:03.702Z,16.57
2018-09-07T03:36:33.420Z,13.40
2018-09-07T03:39:02.006Z,12.63
2018-09-07T03:41:31.883Z,11.20
2018-09-07T03:44:01.772Z,12.03
2018-09-07T03:46:30.827Z,11.93
2018-09-07T03:49:01.829Z,12.13
2018-09-07T03:51:30.534Z,13.20
2018-09-07T03:54:00.094Z,11.20
2018-09-07T03:56:30.288Z,11.37
2018-09-07T03:58:59.070Z,11.40
2018-09-07T04:01:31.430Z,11.00
2018-09-07T04:04:00.790Z,13.27
2018-09-07T04:06:30.123Z,13.97
2018-09-07T04:08:58.219Z,13.67
2018-09-07T04:11:26.744Z,12.80
2018-09-07T04:13:54.964Z,14.20
2018-09-07T04:16:22.942Z,14.13
2018-09-07T04:18:52.747Z,15.00
2018-09-07T04:21:21.997Z,13.70
2018-09-07T04:23:52.228Z,14.30
2018-09-07T04:26:21.714Z,12.80
2018-09-07T04:28:50.724Z,12.50
2018-09-07T04:31:21.387Z,17.03
2018-09-07T04:33:52.051Z,17.97
2018-09-07T04:36:20.047Z,16.60
2018-09-07T04:38:50.750Z,17.30
2018-09-07T04:41:19.152Z,17.40
2018-09-07T04:43:49.649Z,16.53
2018-09-07T04:46:17.958Z,16.90
2018-09-07T04:48:46.563Z,17.73
2018-09-07T04:51:15.926Z,15.40
2018-09-07T04:53:45.959Z,16.33
2018-09-07T04:56:14.850Z,14.57
2018-09-07T04:58:42.872Z,14.83
2018-09-07T05:01:10.851Z,15.00
2018-09-07T05:03:40.282Z,13.37
2018-09-07T05:06:12.134Z,13.13
2018-09-07T05:08:41.262Z,13.23
2018-09-07T05:11:09.858Z,13.57
2018-09-07T05:13:37.884Z,15.43
2018-09-07T05:16:06.277Z,14.67
2018-09-07T05:18:34.801Z,16.67
2018-09-07T05:21:03.261Z,15.90
2018-09-07T05:23:31.134Z,16.90
2018-09-07T05:25:59.027Z,16.30
2018-09-07T05:28:27.316Z,15.77
2018-09-07T05:30:55.813Z,20.23
2018-09-07T05:33:23.997Z,18.37
2018-09-07T05:35:52.173Z,18.97
2018-09-07T05:38:20.140Z,19.03
2018-09-07T05:40:48.304Z,19.00
2018-09-07T05:43:16.245Z,18.03
2018-09-07T05:45:44.491Z,19.33
2018-09-07T05:48:12.969Z,19.20
2018-09-07T05:50:41.193Z,17.67
2018-09-07T05:53:09.389Z,17.87
2018-09-07T05:55:37.359Z,19.50
2018-09-07T05:58:05.491Z,21.73
2018-09-07T06:00:33.485Z,21.93
2018-09-07T06:03:01.438Z,19.80
2018-09-07T06:05:29.350Z,21.60
2018-09-07T06:07:57.295Z,21.37
2018-09-07T06:10:25.237Z,20.87
2018-09-07T06:12:53.630Z,21.73
2018-09-07T06:15:22.108Z,21.30
2018-09-07T06:17:50.711Z,20.67
2018-09-07T06:20:18.872Z,18.87
2018-09-07T06:22:47.417Z,24.20
2018-09-07T06:25:15.689Z,21.63
2018-09-07T06:27:43.987Z,20.90
2018-09-07T06:30:12.415Z,20.10
2018-09-07T06:32:40.612Z,22.00
2018-09-07T06:35:08.931Z,21.73
2018-09-07T06:37:36.910Z,21.20
2018-09-07T06:40:05.006Z,22.97
2018-09-07T06:42:32.946Z,23.23
2018-09-07T06:45:00.903Z,22.53
2018-09-07T06:47:28.828Z,22.57
2018-09-07T06:49:56.761Z,21.70
2018-09-07T06:52:24.678Z,22.10
2018-09-07T06:54:52.654Z,26.77
2018-09-07T06:57:24.562Z,23.33
2018-09-07T06:59:55.434Z,24.47
2018-09-07T07:02:24.276Z,23.00
2018-09-07T07:04:55.255Z,23.30
2018-09-07T07:07:26.465Z,24.87
2018-09-07T07:09:58.161Z,23.63
2018-09-07T07:12:26.255Z,24.80
2018-09-07T07:14:56.369Z,25.63
2018-09-07T07:17:26.356Z,23.23
2018-09-07T07:19:55.083Z,22.40
2018-09-07T07:22:23.450Z,22.37
2018-09-07T07:24:51.788Z,23.80
2018-09-07T07:27:22.765Z,21.40
2018-09-07T07:29:56.125Z,21.80
2018-09-07T07:32:30.457Z,21.60
2018-09-07T07:34:59.170Z,24.03
2018-09-07T07:37:28.701Z,25.13
2018-09-07T07:39:57.929Z,25.10
2018-09-07T07:42:28.123Z,24.17
2018-09-07T07:45:00.513Z,24.27
2018-09-07T07:47:29.244Z,23.83
2018-09-07T07:49:58.756Z,25.97
2018-09-07T07:52:30.419Z,22.13
2018-09-07T07:55:01.857Z,21.67
2018-09-07T07:57:32.704Z,23.80
2018-09-07T08:00:01.451Z,20.83
2018-09-07T08:02:30.953Z,21.80
2018-09-07T08:04:58.905Z,20.40
2018-09-07T08:07:26.981Z,20.53
2018-09-07T08:09:55.505Z,21.50
2018-09-07T08:12:23.521Z,21.80
2018-09-07T08:14:51.763Z,20.90
2018-09-07T08:17:19.688Z,20.70
2018-09-07T08:19:48.586Z,18.83
2018-09-07T08:22:17.324Z,17.57
2018-09-07T08:24:45.807Z,19.57
2018-09-07T08:27:13.743Z,21.23
2018-09-07T08:29:41.714Z,18.20
2018-09-07T08:32:09.688Z,18.03
2018-09-07T08:34:37.599Z,18.77
2018-09-07T08:37:05.580Z,18.90
2018-09-07T08:39:33.549Z,18.70
2018-09-07T08:42:01.515Z,17.27
2018-09-07T08:44:29.446Z,18.10
2018-09-07T08:46:57.400Z,17.27
2018-09-07T08:49:25.357Z,16.57
2018-09-07T08:51:53.330Z,14.83
2018-09-07T08:54:21.314Z,13.97
2018-09-07T08:56:49.291Z,13.93
2018-09-07T08:59:17.545Z,12.37
2018-09-07T09:01:45.477Z,13.87
2018-09-07T09:04:13.450Z,14.37
2018-09-07T09:06:41.651Z,13.67
2018-09-07T09:09:09.835Z,13.13
2018-09-07T09:11:37.832Z,14.03
2018-09-07T09:14:05.746Z,12.20
2018-09-07T09:16:33.674Z,14.70
2018-09-07T09:19:01.612Z,14.90
2018-09-07T09:21:29.528Z,13.07
2018-09-07T09:23:57.573Z,13.67
2018-09-07T09:26:25.492Z,14.20
2018-09-07T09:28:53.440Z,12.80
2018-09-07T09:31:21.427Z,13.60
2018-09-07T09:33:49.350Z,14.40
2018-09-07T09:36:17.457Z,14.53
2018-09-07T09:38:45.402Z,15.67
2018-09-07T09:41:13.491Z,14.60
2018-09-07T09:43:41.496Z,13.67
2018-09-07T09:53:07.233Z,13.33
2018-09-07T09:55:35.106Z,12.77
2018-09-07T09:58:03.082Z,13.73
2018-09-07T10:00:36.502Z,14.00
2018-09-07T10:03:09.982Z,13.30
2018-09-07T10:05:38.229Z,13.30
2018-09-07T10:08:06.382Z,12.70
2018-09-07T10:10:34.332Z,13.00
2018-09-07T10:13:02.305Z,13.03
2018-09-07T10:15:30.926Z,13.10
2018-09-07T10:17:58.953Z,13.27
2018-09-07T10:20:26.886Z,12.40
2018-09-07T10:22:55.405Z,13.27
2018-09-07T10:25:23.395Z,12.47
2018-09-07T10:27:51.320Z,12.47
2018-09-07T10:30:19.905Z,13.37
2018-09-07T10:32:47.864Z,13.23
2018-09-07T10:35:15.836Z,11.80
2018-09-07T10:37:43.804Z,12.80
2018-09-07T10:40:11.724Z,11.27
2018-09-07T10:42:40.201Z,11.80
2018-09-07T10:45:08.193Z,12.13
2018-09-07T10:47:36.147Z,11.80
2018-09-07T10:50:04.393Z,11.50
2018-09-07T10:52:32.311Z,13.07
2018-09-07T10:55:00.826Z,11.90
2018-09-07T10:57:29.619Z,12.80
2018-09-07T10:59:57.602Z,13.00
2018-09-07T11:02:25.896Z,11.60
2018-09-07T11:04:54.649Z,12.90
2018-09-07T11:07:22.632Z,11.60
2018-09-07T11:09:51.160Z,12.50
2018-09-07T11:12:19.090Z,11.47
2018-09-07T11:14:46.974Z,12.57
2018-09-07T11:17:15.642Z,12.17
2018-09-07T11:19:44.144Z,12.00
2018-09-07T11:22:12.956Z,13.87
2018-09-07T11:24:40.873Z,12.23
2018-09-07T11:27:09.589Z,11.40
2018-09-07T11:29:37.515Z,11.57
2018-09-07T11:32:05.500Z,12.20
2018-09-07T11:34:34.683Z,12.70
2018-09-07T11:37:02.668Z,11.70
2018-09-07T11:39:30.593Z,12.70
2018-09-07T11:41:59.677Z,12.43
2018-09-07T11:44:28.572Z,12.80
2018-09-07T11:46:56.534Z,13.00
2018-09-07T11:49:24.716Z,14.07
2018-09-07T11:51:52.768Z,13.00
2018-09-07T11:54:20.749Z,13.83
2018-09-07T11:56:49.466Z,15.00
2018-09-07T11:59:18.945Z,14.50
2018-09-07T12:01:47.666Z,14.43
2018-09-07T12:04:16.386Z,13.93
2018-09-07T12:06:44.283Z,13.90
2018-09-07T12:09:12.883Z,14.70
2018-09-07T12:11:40.906Z,16.07
2018-09-07T12:14:09.599Z,13.57
2018-09-07T12:16:37.628Z,14.80
2018-09-07T12:19:05.731Z,14.20
2018-09-07T12:21:34.361Z,14.83
2018-09-07T12:24:02.400Z,15.30
2018-09-07T12:26:30.425Z,15.37
2018-09-07T12:28:59.786Z,14.60
2018-09-07T12:31:28.475Z,15.20
2018-09-07T12:33:57.282Z,14.80
2018-09-07T12:36:26.935Z,13.80
2018-09-07T12:38:55.446Z,15.00
2018-09-07T12:41:24.289Z,14.93
2018-09-07T12:43:53.214Z,14.50
2018-09-07T12:46:21.291Z,14.93
2018-09-07T12:48:49.865Z,15.50
2018-09-07T12:51:18.810Z,14.50
2018-09-07T12:53:47.417Z,14.67
2018-09-07T12:56:16.038Z,15.27
2018-09-07T12:58:44.078Z,14.73
2018-09-07T13:01:12.013Z,13.70
2018-09-07T13:03:40.661Z,14.57
2018-09-07T13:06:08.720Z,13.93
2018-09-07T13:08:36.774Z,14.40
2018-09-07T13:11:04.934Z,15.30
2018-09-07T13:13:33.424Z,13.83
2018-09-07T13:16:01.385Z,14.47
2018-09-07T13:18:29.390Z,14.80
2018-09-07T13:20:57.995Z,13.53
2018-09-07T13:23:25.931Z,13.80
2018-09-07T13:25:53.912Z,14.23
2018-09-07T13:28:22.024Z,14.33
2018-09-07T13:30:49.955Z,14.50
2018-09-07T13:33:18.152Z,13.50
2018-09-07T13:35:46.102Z,13.80
2018-09-07T13:38:14.670Z,14.20
2018-09-07T13:40:42.589Z,15.00
2018-09-07T13:43:12.117Z,14.60
2018-09-07T13:45:40.032Z,13.50
2018-09-07T13:48:07.961Z,13.70
2018-09-07T13:50:37.061Z,13.50
2018-09-07T13:53:05.938Z,13.70
2018-09-07T13:55:33.905Z,13.40
2018-09-07T13:58:01.822Z,13.60
2018-09-07T14:00:29.738Z,14.90
2018-09-07T14:02:57.655Z,14.47
2018-09-07T14:05:26.263Z,13.73
2018-09-07T14:07:54.832Z,14.20
2018-09-07T14:10:22.749Z,13.97
2018-09-07T14:12:51.333Z,13.70
2018-09-07T14:15:20.485Z,13.30
2018-09-07T14:17:48.410Z,14.03
2018-09-07T14:20:16.341Z,12.97
2018-09-07T14:22:44.269Z,15.00
2018-09-07T14:25:13.543Z,14.00
2018-09-07T14:27:41.820Z,14.40
2018-09-07T14:30:11.157Z,14.73
2018-09-07T14:32:40.113Z,14.87
2018-09-07T14:35:08.083Z,13.83
2018-09-07T14:37:36.019Z,16.20
2018-09-07T14:40:04.000Z,21.23
2018-09-07T14:42:33.123Z,15.10
2018-09-07T14:45:02.542Z,13.10
2018-09-07T14:47:31.943Z,14.10
2018-09-07T14:49:59.952Z,15.20
2018-09-07T14:52:28.686Z,14.57
2018-09-07T14:54:57.657Z,16.53
2018-09-07T14:57:26.303Z,15.63
2018-09-07T14:59:55.065Z,15.77
2018-09-07T15:02:23.213Z,17.37
2018-09-07T15:04:51.171Z,14.30
2018-09-07T15:07:19.121Z,16.73
2018-09-07T15:09:48.093Z,16.03
2018-09-07T15:12:16.739Z,16.80
2018-09-07T15:14:44.680Z,15.00
2018-09-07T15:17:12.816Z,17.43
2018-09-07T15:19:41.747Z,15.43
2018-09-07T15:22:09.654Z,15.43
2018-09-07T15:24:37.641Z,16.53
2018-09-07T15:27:05.595Z,16.17
2018-09-07T15:29:33.489Z,15.67
2018-09-07T15:32:02.199Z,14.83
2018-09-07T15:34:30.107Z,21.60
2018-09-07T15:36:59.030Z,17.43
2018-09-07T15:39:27.940Z,17.63
2018-09-07T15:41:56.632Z,15.47
2018-09-07T15:44:25.157Z,15.40
2018-09-07T15:46:54.410Z,21.63
2018-09-07T15:49:22.369Z,17.67
2018-09-07T15:51:50.988Z,16.90
2018-09-07T15:54:19.594Z,20.07
2018-09-07T15:56:47.609Z,16.97
2018-09-07T15:59:16.211Z,15.10
2018-09-07T16:01:44.326Z,17.53
2018-09-07T16:04:13.056Z,15.27
2018-09-07T16:06:41.024Z,14.03
2018-09-07T16:09:09.212Z,14.10
2018-09-07T16:11:37.190Z,14.77
2018-09-07T16:14:05.698Z,15.30
2018-09-07T16:16:33.675Z,13.63
2018-09-07T16:19:03.167Z,13.37
2018-09-07T16:21:31.145Z,13.40
2018-09-07T16:23:59.471Z,12.40
2018-09-07T16:26:28.386Z,13.80
2018-09-07T16:28:56.330Z,14.53
2018-09-07T16:31:24.894Z,14.37
2018-09-07T16:33:53.102Z,14.23
2018-09-07T16:36:21.701Z,14.77
2018-09-07T16:38:49.674Z,15.73
2018-09-07T16:41:17.618Z,14.80
2018-09-07T16:43:46.421Z,14.40
2018-09-07T16:46:14.448Z,16.17
2018-09-07T16:48:42.369Z,15.13
2018-09-07T16:51:10.362Z,15.13
2018-09-07T16:53:38.262Z,14.63
2018-09-07T16:56:06.601Z,15.70
2018-09-07T16:58:34.510Z,16.10
2018-09-07T17:01:02.413Z,15.30
2018-09-07T17:03:30.423Z,16.60
2018-09-07T17:05:58.396Z,15.10
2018-09-07T17:08:26.331Z,15.33
2018-09-07T17:10:54.262Z,13.70
2018-09-07T17:13:22.361Z,13.57
2018-09-07T17:15:50.563Z,15.10
2018-09-07T17:18:18.535Z,16.43
2018-09-07T17:20:46.534Z,14.77
2018-09-07T17:23:15.130Z,15.47
2018-09-07T17:25:43.093Z,14.60
2018-09-07T17:28:11.010Z,13.30
2018-09-07T17:30:39.162Z,14.90
2018-09-07T17:33:07.135Z,12.70
2018-09-07T17:35:35.870Z,11.90
2018-09-07T17:38:11.112Z,12.40
2018-09-07T17:40:40.192Z,14.63
2018-09-07T17:43:09.692Z,14.07
2018-09-07T17:45:39.240Z,15.43
2018-09-07T17:48:08.051Z,16.23
2018-09-07T17:50:36.182Z,15.47
2018-09-07T17:53:04.118Z,15.37
2018-09-07T17:55:32.357Z,14.40
2018-09-07T17:58:00.287Z,15.17
2018-09-07T18:00:28.205Z,15.13
2018-09-07T18:02:56.291Z,15.23
2018-09-07T18:05:28.339Z,14.67
2018-09-07T18:07:56.364Z,15.70
2018-09-07T18:10:25.045Z,17.03
2018-09-07T18:12:53.627Z,16.90
2018-09-07T18:15:22.820Z,14.43
2018-09-07T18:17:51.461Z,17.93
2018-09-07T18:20:19.819Z,18.13
2018-09-07T18:22:47.762Z,18.47
2018-09-07T18:25:15.991Z,18.73
2018-09-07T18:27:43.908Z,17.00
2018-09-07T18:30:11.851Z,16.83
2018-09-07T18:32:39.812Z,18.07
2018-09-07T18:35:08.392Z,17.47
2018-09-07T18:37:36.402Z,16.77
2018-09-07T18:40:05.081Z,20.27
2018-09-07T18:42:34.308Z,15.90
2018-09-07T18:45:02.228Z,16.70
2018-09-07T18:47:30.660Z,18.13
2018-09-07T18:49:59.996Z,17.00
2018-09-07T18:52:29.273Z,18.17
2018-09-07T18:54:57.263Z,18.63
2018-09-07T18:57:27.059Z,17.00
2018-09-07T18:59:55.264Z,18.07
2018-09-07T19:02:26.191Z,19.80
2018-09-07T19:04:54.169Z,17.33
2018-09-07T19:07:22.709Z,17.53
2018-09-07T19:09:50.879Z,15.90
2018-09-07T19:12:19.335Z,19.27
2018-09-07T19:14:48.061Z,18.40
2018-09-07T19:17:16.610Z,17.03
2018-09-07T19:19:44.515Z,15.80
2018-09-07T19:22:13.055Z,18.07
2018-09-07T19:24:42.249Z,17.53
2018-09-07T19:27:10.225Z,17.07
2018-09-07T19:29:38.294Z,16.03
2018-09-07T19:32:06.241Z,14.10
2018-09-07T19:34:34.677Z,16.03
2018-09-07T19:37:03.977Z,13.20
2018-09-07T19:39:31.881Z,13.40
2018-09-07T19:42:00.028Z,10.63
2018-09-07T19:44:28.000Z,9.90
2018-09-07T19:46:56.775Z,10.33
2018-09-07T19:49:25.407Z,10.00
2018-09-07T19:51:54.421Z,8.80
2018-09-07T19:54:23.065Z,8.40
2018-09-07T19:56:51.010Z,7.07
2018-09-07T19:59:18.954Z,8.70
2018-09-07T20:01:46.910Z,7.23
2018-09-07T20:04:14.911Z,7.20
2018-09-07T20:06:43.510Z,7.47
2018-09-07T20:09:12.177Z,7.30
2018-09-07T20:11:40.665Z,7.27
2018-09-07T20:14:08.667Z,8.60
2018-09-07T20:16:36.922Z,8.80
2018-09-07T20:19:05.457Z,7.67
2018-09-07T20:21:33.405Z,7.87
2018-09-07T20:24:03.122Z,8.27
2018-09-07T20:26:31.098Z,8.17
2018-09-07T20:28:59.055Z,8.43
2018-09-07T20:31:26.996Z,8.90
2018-09-07T20:33:55.905Z,9.83
2018-09-07T20:36:23.927Z,9.90
2018-09-07T20:38:51.864Z,10.53
2018-09-07T20:41:19.776Z,10.37
2018-09-07T20:43:48.051Z,10.37
2018-09-07T20:46:16.290Z,10.23
2018-09-07T20:48:44.496Z,11.20
2018-09-07T20:51:12.395Z,10.03
2018-09-07T20:53:40.353Z,11.47
2018-09-07T20:56:08.270Z,10.17
2018-09-07T20:58:36.797Z,10.03
2018-09-07T21:01:05.543Z,10.60
2018-09-07T21:03:34.389Z,10.70
2018-09-07T21:06:10.128Z,9.20
2018-09-07T21:08:40.685Z,9.43
2018-09-07T21:11:09.641Z,10.23
2018-09-07T21:13:37.859Z,10.10
2018-09-07T21:16:06.918Z,8.97
2018-09-07T21:18:35.017Z,9.20
2018-09-07T21:21:03.285Z,9.93
2018-09-07T21:23:31.930Z,9.63
2018-09-07T21:25:59.915Z,9.60
2018-09-07T21:28:28.001Z,9.77
2018-09-07T21:30:56.338Z,9.60
2018-09-07T21:33:24.502Z,9.60
2018-09-07T21:35:52.503Z,9.70
2018-09-07T21:38:20.408Z,9.77
2018-09-07T21:40:48.695Z,9.70
2018-09-07T21:43:17.277Z,9.60
2018-09-07T21:45:45.927Z,9.57
2018-09-07T21:48:14.085Z,10.07
2018-09-07T21:50:42.018Z,8.70
2018-09-07T21:53:10.002Z,10.30
2018-09-07T21:55:37.988Z,10.70
2018-09-07T21:58:06.742Z,9.80
2018-09-07T22:00:34.756Z,13.70
2018-09-07T22:03:03.361Z,10.43
2018-09-07T22:05:31.317Z,10.83
2018-09-07T22:08:01.545Z,10.07
2018-09-07T22:10:30.168Z,10.40
2018-09-07T22:12:58.312Z,11.87
2018-09-07T22:15:26.365Z,11.10
2018-09-07T22:17:55.481Z,10.77
2018-09-07T22:20:24.479Z,10.43
2018-09-07T22:22:52.671Z,10.70
2018-09-07T22:25:20.650Z,11.07
2018-09-07T22:27:48.783Z,11.83
2018-09-07T22:30:16.825Z,11.47
2018-09-07T22:32:44.791Z,12.70
2018-09-07T22:35:13.460Z,12.00
2018-09-07T22:37:41.449Z,11.20
2018-09-07T22:40:11.190Z,13.60
2018-09-07T22:42:41.017Z,13.80
2018-09-07T22:45:09.658Z,14.20
2018-09-07T22:47:37.584Z,13.13
2018-09-07T22:50:05.645Z,12.70
2018-09-07T22:52:33.648Z,12.47
2018-09-07T22:55:02.292Z,12.70
2018-09-07T22:57:30.566Z,14.00
2018-09-07T22:59:59.209Z,13.03
2018-09-07T23:02:27.159Z,13.87
2018-09-07T23:04:55.494Z,13.57
2018-09-07T23:07:23.441Z,13.90
2018-09-07T23:09:51.389Z,14.10
2018-09-07T23:12:19.317Z,13.50
2018-09-07T23:14:47.266Z,13.93
2018-09-07T23:17:15.801Z,14.20
2018-09-07T23:19:43.799Z,12.17
2018-09-07T23:22:11.812Z,14.83
2018-09-07T23:24:39.748Z,13.63
2018-09-07T23:27:07.751Z,15.00
2018-09-07T23:29:35.912Z,15.73
2018-09-07T23:32:03.876Z,14.83
2018-09-07T23:34:31.839Z,15.00
2018-09-07T23:37:00.220Z,15.33
2018-09-07T23:39:28.200Z,14.60
2018-09-07T23:41:56.185Z,15.40
2018-09-07T23:44:24.624Z,17.20
2018-09-07T23:46:52.552Z,15.57
2018-09-07T23:49:20.558Z,14.00
2018-09-07T23:51:48.487Z,14.40
2018-09-07T23:54:16.419Z,14.47
2018-09-07T23:56:44.950Z,17.53
2018-09-07T23:59:12.882Z,14.57
